Inegol, Turkey
Current Conditions -  °F | °C
As of 9:50 PM on Thursday 23 Oct 2014 (Local Time) from LTBR Reporting Station
Broken Clouds Broken Clouds  
Wind Chill: 72°   Ceiling: 10000
Heat Index: 72°   Visibility: 6mi
Dew Point: 48°   Wind: 14mph
Humidity: 43%   Direction: 160°SSE
Pressure: 29.74"   Gusts: NA
Location:  40.08°N, 29.51°E
Report Text: LTBR 231850Z 16012KT 9999 SCT035 BKN100 22/09 Q1007 BECMG TL1950 VRB02KT
Loading
Personal Weather Stations






























Interactive Weather Map
Tropical Storm Tracking
New forecast layout! Learn more

10-Day Weather Forecast

Advertisements
Track Severe Weather on mobile